KDXR

Danbury Municipal Airport

Danbury, Connecticut, USA
METAR KDXR 161553Z 32009G16KT 10SM SCT060 02/M01 A2963 RMK AO2 SNE43 SLP036 P0000 T00221011
Observed Flight Rules
Nov-16 @ 15:53 UTC (53 minutes ago) Visual Flight Rules
Wind Visibility Clouds
320° at 9 knots
 Gusting to 16 knots
10 miles
  • Scattered at 6,000' AGL
Temperatures Readings Precipitation
Current 2°C / 36°F
Dewpoint -1°C / 30°F
Humidity 81%
Altimeter 29.63" Hg
Pressure 1003.6 hPa
Elevation 139
Current Rain 0.005
METAR KDXR 161553Z 32009G16KT 10SM SCT060 02/M01 A2963 RMK AO2 SNE43 SLP036 P0000 T00221011
Observed Flight Rules
Nov-16 @ 15:53 UTC
(53 minutes ago)
VFR
Wind Visibility
320° at 9 knots
 Gusting to 16 knots
10 miles
Clouds
  • Scattered at 6,000' AGL
Temperature Dewpoint
2°C / 36°F -1°C / 30°F
Humidity Altimeter Pressure
81% 29.63" Hg 1003.6 hPa
Current Rain
0.005